Time;durP1;ratioP1;P1;durP2;ratioP2;P2;SDS_P1;SDS_P2;PMS_P1;PMS_P2;Temp;Humidity;BMP_temperature;BMP_pressure;BME280_temperature;BME280_humidity;BME280_pressure;Samples;Min_cycle;Max_cycle;Signal;HPM_P1;HPM_P2
2022/11/09 00:03:58;;;;;;;53.00;24.83;;;;;;;;;;12954390;22;19996;-75
2022/11/09 00:09:01;;;;;;;55.45;26.08;;;;;;;;;;12953517;22;20007;-74
2022/11/09 00:14:01;;;;;;;55.08;25.40;;;;;;;;;;12953546;22;20026;-78
2022/11/09 00:19:01;;;;;;;60.85;28.15;;;;;;;;;;12953494;22;19994;-80
2022/11/09 00:24:01;;;;;;;57.13;27.27;;;;;;;;;;12953444;22;20349;-73
2022/11/09 00:29:02;;;;;;;64.53;29.95;;;;;;;;;;12953792;22;19999;-78
2022/11/09 00:34:02;;;;;;;69.53;29.25;;;;;;;;;;12993903;22;19996;-73
2022/11/09 00:39:03;;;;;;;59.78;29.75;;;;;;;;;;12952905;22;20436;-74
2022/11/09 00:44:03;;;;;;;61.40;27.17;;;;;;;;;;13000642;22;20008;-74
2022/11/09 00:49:03;;;;;;;57.45;26.98;;;;;;;;;;12952731;22;19998;-74
2022/11/09 00:54:04;;;;;;;61.08;27.60;;;;;;;;;;12952746;22;20003;-73
2022/11/09 00:59:04;;;;;;;58.33;26.35;;;;;;;;;;12987965;22;20011;-75
2022/11/09 01:04:04;;;;;;;62.45;28.45;;;;;;;;;;13000608;22;20062;-74
2022/11/09 01:09:04;;;;;;;56.78;25.40;;;;;;;;;;12952207;22;19987;-73
2022/11/09 01:14:04;;;;;;;55.70;24.92;;;;;;;;;;13000684;22;20036;-74
2022/11/09 01:19:05;;;;;;;50.70;23.33;;;;;;;;;;12951869;22;19995;-76
2022/11/09 01:24:07;;;;;;;56.30;26.90;;;;;;;;;;12927037;22;20003;-74
2022/11/09 01:29:08;;;;;;;53.35;25.77;;;;;;;;;;12927347;22;20075;-73
2022/11/09 01:34:08;;;;;;;66.00;27.27;;;;;;;;;;12961325;22;19996;-74
2022/11/09 01:39:08;;;;;;;59.75;26.50;;;;;;;;;;13004198;22;20398;-72
2022/11/09 01:44:11;;;;;;;56.00;26.25;;;;;;;;;;12990648;22;20312;-80
2022/11/09 01:49:13;;;;;;;59.88;26.70;;;;;;;;;;12978818;22;20045;-74
2022/11/09 01:54:19;;;;;;;53.50;24.95;;;;;;;;;;12970461;22;20414;-75
2022/11/09 01:59:25;;;;;;;66.35;27.67;;;;;;;;;;12957813;22;20082;-73
2022/11/09 02:04:29;;;;;;;65.38;28.50;;;;;;;;;;12973805;22;20000;-74
2022/11/09 02:09:37;;;;;;;70.20;29.40;;;;;;;;;;13001289;22;19987;-76
2022/11/09 02:14:37;;;;;;;;;;;;;;;;;;12948589;22;20015;-73
2022/11/09 02:19:38;;;;;;;61.13;26.73;;;;;;;;;;12951926;22;19899;-74
2022/11/09 02:24:38;;;;;;;58.42;25.73;;;;;;;;;;12999547;22;20019;-79
2022/11/09 02:29:42;;;;;;;56.63;26.45;;;;;;;;;;12951542;22;20007;-77
2022/11/09 02:34:43;;;;;;;56.85;25.13;;;;;;;;;;12987543;22;19987;-74
2022/11/09 02:39:43;;;;;;;59.08;25.48;;;;;;;;;;12951610;22;19991;-74
2022/11/09 02:44:45;;;;;;;55.05;24.45;;;;;;;;;;12953356;22;19995;-74
2022/11/09 02:49:46;;;;;;;59.67;26.13;;;;;;;;;;12950814;22;20004;-73
2022/11/09 02:54:49;;;;;;;58.60;25.13;;;;;;;;;;12950926;22;19992;-75
2022/11/09 02:59:49;;;;;;;53.85;24.20;;;;;;;;;;12950192;22;20015;-76
2022/11/09 03:04:49;;;;;;;59.22;24.60;;;;;;;;;;12949832;22;20003;-74
2022/11/09 03:09:49;;;;;;;53.15;23.42;;;;;;;;;;12950279;22;20026;-75
2022/11/09 03:14:50;;;;;;;51.17;22.10;;;;;;;;;;12950388;22;20258;-77
2022/11/09 03:19:50;;;;;;;51.10;22.83;;;;;;;;;;12951137;22;20020;-77
2022/11/09 03:24:50;;;;;;;54.30;25.27;;;;;;;;;;12950373;22;20019;-72
2022/11/09 03:29:51;;;;;;;48.25;23.90;;;;;;;;;;12998423;22;20023;-74
2022/11/09 03:34:51;;;;;;;51.67;23.27;;;;;;;;;;12949677;22;19988;-77
2022/11/09 03:39:51;;;;;;;58.25;24.48;;;;;;;;;;12950229;22;20045;-78
2022/11/09 03:44:51;;;;;;;55.45;25.30;;;;;;;;;;12950003;22;20024;-74
2022/11/09 03:49:52;;;;;;;55.05;24.65;;;;;;;;;;12949747;22;20018;-73
2022/11/09 03:54:52;;;;;;;65.28;27.60;;;;;;;;;;12987466;22;20002;-75
2022/11/09 03:59:58;;;;;;;59.05;25.55;;;;;;;;;;12956205;23;20358;-75
2022/11/09 04:05:00;;;;;;;54.50;24.48;;;;;;;;;;12950163;23;20056;-75
2022/11/09 04:10:00;;;;;;;60.03;26.00;;;;;;;;;;12931316;23;20083;-75
2022/11/09 04:15:00;;;;;;;54.80;25.13;;;;;;;;;;12924878;22;20056;-73
2022/11/09 04:20:00;;;;;;;66.78;27.02;;;;;;;;;;12913780;22;20466;-80
2022/11/09 04:25:01;;;;;;;66.75;27.83;;;;;;;;;;12914684;22;20061;-80
2022/11/09 04:30:01;;;;;;;62.80;26.50;;;;;;;;;;12913476;23;19996;-74
2022/11/09 04:35:01;;;;;;;57.80;24.35;;;;;;;;;;12933684;22;19999;-77
2022/11/09 04:40:02;;;;;;;62.23;26.60;;;;;;;;;;12937402;22;20023;-76
2022/11/09 04:45:02;;;;;;;72.40;28.83;;;;;;;;;;12914948;22;19993;-73
2022/11/09 04:50:02;;;;;;;57.77;26.90;;;;;;;;;;12914813;23;20238;-78
2022/11/09 04:55:04;;;;;;;48.63;22.67;;;;;;;;;;12915040;23;20063;-74
2022/11/09 05:00:06;;;;;;;49.85;22.40;;;;;;;;;;12962949;22;20268;-74
2022/11/09 05:05:06;;;;;;;49.78;23.65;;;;;;;;;;12999643;22;19996;-79
2022/11/09 05:10:07;;;;;;;47.20;23.67;;;;;;;;;;12951988;22;20043;-73
2022/11/09 05:15:07;;;;;;;57.87;25.87;;;;;;;;;;13000242;22;19992;-74
2022/11/09 05:20:08;;;;;;;47.42;23.83;;;;;;;;;;12951675;22;20229;-79
2022/11/09 05:25:08;;;;;;;50.08;24.77;;;;;;;;;;12951146;22;19991;-74
2022/11/09 05:30:09;;;;;;;63.53;24.30;;;;;;;;;;12950097;22;20004;-74
2022/11/09 05:35:09;;;;;;;53.13;25.85;;;;;;;;;;12949864;22;20045;-75
2022/11/09 05:40:10;;;;;;;50.08;24.67;;;;;;;;;;12950771;22;19995;-74
2022/11/09 05:45:14;;;;;;;64.77;27.57;;;;;;;;;;12994930;22;19988;-75
2022/11/09 05:50:14;;;;;;;60.38;26.60;;;;;;;;;;12963654;22;20007;-76
2022/11/09 05:55:15;;;;;;;54.33;26.10;;;;;;;;;;12947020;22;20455;-74
2022/11/09 06:00:15;;;;;;;63.07;26.97;;;;;;;;;;12949797;22;20855;-75
2022/11/09 06:05:16;;;;;;;57.53;24.23;;;;;;;;;;12996323;22;20065;-75
2022/11/09 06:10:17;;;;;;;48.10;22.95;;;;;;;;;;12999760;22;20023;-75
2022/11/09 06:15:17;;;;;;;45.13;22.33;;;;;;;;;;12953782;22;19991;-76
2022/11/09 06:20:17;;;;;;;54.70;22.25;;;;;;;;;;12970612;22;19996;-75
2022/11/09 06:25:17;;;;;;;48.75;25.20;;;;;;;;;;12979209;22;19988;-73
2022/11/09 06:30:17;;;;;;;57.03;25.92;;;;;;;;;;12958128;22;20094;-75
2022/11/09 06:35:18;;;;;;;55.28;26.08;;;;;;;;;;12953967;22;19992;-72
2022/11/09 06:40:18;;;;;;;59.33;26.75;;;;;;;;;;12948994;22;20029;-73
2022/11/09 06:45:18;;;;;;;56.85;25.58;;;;;;;;;;12949305;22;20019;-76
2022/11/09 06:50:18;;;;;;;53.47;24.95;;;;;;;;;;12948905;22;20042;-75
2022/11/09 06:55:19;;;;;;;54.85;25.75;;;;;;;;;;12949011;22;19988;-77
2022/11/09 07:00:19;;;;;;;58.47;24.98;;;;;;;;;;12948444;22;20007;-79
2022/11/09 07:05:20;;;;;;;51.53;25.80;;;;;;;;;;12949377;22;20010;-74
2022/11/09 07:10:20;;;;;;;53.30;24.33;;;;;;;;;;12949058;22;20031;-75
2022/11/09 07:15:20;;;;;;;65.80;25.67;;;;;;;;;;12949271;22;20447;-74
2022/11/09 07:20:20;;;;;;;49.08;23.23;;;;;;;;;;12994244;22;19992;-80
2022/11/09 07:25:21;;;;;;;50.75;21.83;;;;;;;;;;12949319;22;20057;-75
2022/11/09 07:30:21;;;;;;;45.50;23.40;;;;;;;;;;12997569;22;19996;-78
2022/11/09 07:35:21;;;;;;;46.90;22.13;;;;;;;;;;12997833;22;19988;-74
2022/11/09 07:40:21;;;;;;;44.92;23.25;;;;;;;;;;12948669;22;20004;-75
2022/11/09 07:45:22;;;;;;;46.75;21.58;;;;;;;;;;12949015;22;20061;-75
2022/11/09 07:50:22;;;;;;;44.35;23.77;;;;;;;;;;12949309;22;20082;-77
2022/11/09 07:55:23;;;;;;;47.25;24.30;;;;;;;;;;12953516;22;19989;-77
2022/11/09 08:00:24;;;;;;;51.47;24.20;;;;;;;;;;12952949;22;20012;-74
2022/11/09 08:05:24;;;;;;;50.17;22.25;;;;;;;;;;13001161;22;20027;-76
2022/11/09 08:10:25;;;;;;;43.92;21.25;;;;;;;;;;12927667;22;20000;-79
2022/11/09 08:15:26;;;;;;;42.67;20.90;;;;;;;;;;12952910;22;19988;-77
2022/11/09 08:20:26;;;;;;;50.03;22.10;;;;;;;;;;12973524;22;19995;-74
2022/11/09 08:25:26;;;;;;;43.27;22.27;;;;;;;;;;12952816;22;19992;-76
2022/11/09 08:30:27;;;;;;;52.60;25.10;;;;;;;;;;12952225;22;20394;-76
2022/11/09 08:35:28;;;;;;;55.55;24.90;;;;;;;;;;12952296;22;20081;-74
2022/11/09 08:40:29;;;;;;;49.25;23.80;;;;;;;;;;12952684;22;20355;-78
2022/11/09 08:45:33;;;;;;;48.50;24.90;;;;;;;;;;12952414;22;20027;-79
2022/11/09 08:50:34;;;;;;;48.85;25.23;;;;;;;;;;13000293;22;19999;-79
2022/11/09 08:55:35;;;;;;;46.85;24.65;;;;;;;;;;13000885;22;19999;-78
2022/11/09 09:00:35;;;;;;;49.77;23.73;;;;;;;;;;12951755;22;20015;-75
2022/11/09 09:05:35;;;;;;;49.33;23.50;;;;;;;;;;12925822;22;20022;-74
2022/11/09 09:10:35;;;;;;;54.50;25.42;;;;;;;;;;12953247;22;20003;-79
2022/11/09 09:15:36;;;;;;;51.03;24.55;;;;;;;;;;12954428;22;19996;-74
2022/11/09 09:20:36;;;;;;;45.70;23.93;;;;;;;;;;12952424;22;20002;-76
2022/11/09 09:25:36;;;;;;;51.65;25.23;;;;;;;;;;13002772;22;20367;-76
2022/11/09 09:30:37;;;;;;;51.42;24.52;;;;;;;;;;12951324;22;20011;-79
2022/11/09 09:35:37;;;;;;;45.22;24.75;;;;;;;;;;12999874;22;19995;-76
2022/11/09 09:40:40;;;;;;;50.03;23.75;;;;;;;;;;12951012;22;20015;-80
2022/11/09 09:45:47;;;;;;;48.50;24.02;;;;;;;;;;12994112;22;20458;-74
2022/11/09 09:50:49;;;;;;;44.85;22.77;;;;;;;;;;13000462;22;20045;-76
2022/11/09 09:55:52;;;;;;;50.22;22.48;;;;;;;;;;12951216;22;19987;-75
2022/11/09 10:01:19;;;;;;;33.42;19.58;;;;;;;;;;12912793;23;20468;-75
2022/11/09 10:06:22;;;;;;;42.35;22.42;;;;;;;;;;12913406;23;19996;-78
2022/11/09 10:11:31;;;;;;;36.22;19.02;;;;;;;;;;12935246;22;20034;-75
2022/11/09 10:16:32;;;;;;;34.80;18.70;;;;;;;;;;12912971;23;20098;-78
2022/11/09 10:21:42;;;;;;;33.28;18.45;;;;;;;;;;12912283;23;20348;-77
2022/11/09 10:26:54;;;;;;;29.45;13.98;;;;;;;;;;12912777;23;20377;-77
2022/11/09 10:31:57;;;;;;;27.83;15.00;;;;;;;;;;12912498;23;20000;-79
2022/11/09 10:37:02;;;;;;;24.00;12.50;;;;;;;;;;12922218;23;20371;-78
2022/11/09 10:42:02;;;;;;;32.88;15.60;;;;;;;;;;12935069;22;19992;-80
2022/11/09 10:47:04;;;;;;;26.70;13.80;;;;;;;;;;12912457;23;20047;-79
2022/11/09 10:52:05;;;;;;;26.85;13.70;;;;;;;;;;12911507;23;20522;-75
2022/11/09 10:57:12;;;;;;;28.85;12.88;;;;;;;;;;12892232;22;20004;-74
2022/11/09 11:02:36;;;;;;;22.17;11.32;;;;;;;;;;12949510;22;19996;-79
2022/11/09 11:07:36;;;;;;;26.45;13.60;;;;;;;;;;12949309;22;20407;-74
2022/11/09 11:12:36;;;;;;;17.95;11.07;;;;;;;;;;12948997;22;20030;-75
2022/11/09 11:17:39;;;;;;;21.77;12.88;;;;;;;;;;12924704;22;20031;-74
2022/11/09 11:22:40;;;;;;;22.02;11.90;;;;;;;;;;12949563;22;19988;-77
2022/11/09 11:27:55;;;;;;;28.23;12.93;;;;;;;;;;12948710;22;20045;-78
2022/11/09 11:32:56;;;;;;;25.15;13.52;;;;;;;;;;12949143;22;20002;-74
2022/11/09 11:38:02;;;;;;;26.20;15.50;;;;;;;;;;12997680;22;20149;-74
2022/11/09 11:43:02;;;;;;;30.42;16.83;;;;;;;;;;12948783;22;20317;-74
2022/11/09 11:48:02;;;;;;;31.88;15.95;;;;;;;;;;12950069;22;19995;-79
2022/11/09 11:53:22;;;;;;;32.08;17.30;;;;;;;;;;12949479;22;19999;-81
2022/11/09 11:58:28;;;;;;;32.53;16.75;;;;;;;;;;12949285;22;20039;-77
2022/11/09 12:03:38;;;;;;;37.08;17.73;;;;;;;;;;12949353;22;20015;-80
2022/11/09 12:08:53;;;;;;;29.35;16.90;;;;;;;;;;12948634;22;20071;-76
2022/11/09 12:13:55;;;;;;;36.83;17.75;;;;;;;;;;12948286;22;20374;-74
2022/11/09 12:19:15;;;;;;;35.78;17.17;;;;;;;;;;12998073;22;20064;-80
2022/11/09 12:24:21;;;;;;;33.30;17.23;;;;;;;;;;12947922;22;20004;-75
2022/11/09 12:29:28;;;;;;;29.33;15.73;;;;;;;;;;12948608;22;19996;-75
2022/11/09 12:34:46;;;;;;;37.33;16.10;;;;;;;;;;12997451;22;20494;-83
2022/11/09 12:39:49;;;;;;;35.30;18.02;;;;;;;;;;12932381;22;20415;-80
2022/11/09 12:45:08;;;;;;;35.58;17.48;;;;;;;;;;12965505;22;20041;-75
2022/11/09 12:50:13;;;;;;;34.72;17.60;;;;;;;;;;13004199;22;20000;-79
2022/11/09 12:55:17;;;;;;;36.15;19.05;;;;;;;;;;12956389;22;19988;-76
2022/11/09 13:00:33;;;;;;;41.00;17.38;;;;;;;;;;12953205;22;20396;-76
2022/11/09 13:05:36;;;;;;;42.58;18.70;;;;;;;;;;12952844;22;20012;-74
2022/11/09 13:10:37;;;;;;;35.05;18.05;;;;;;;;;;12952442;22;20209;-73
2022/11/09 13:15:38;;;;;;;33.75;17.40;;;;;;;;;;13000026;22;19992;-74
2022/11/09 13:20:40;;;;;;;37.53;19.00;;;;;;;;;;12926495;22;20027;-74
2022/11/09 13:25:41;;;;;;;37.55;19.00;;;;;;;;;;12951638;22;20370;-73
2022/11/09 13:30:41;;;;;;;40.58;20.27;;;;;;;;;;12999661;22;19995;-74
2022/11/09 13:35:42;;;;;;;39.80;20.50;;;;;;;;;;12951394;22;20003;-75
2022/11/09 13:40:53;;;;;;;33.33;18.13;;;;;;;;;;12949313;22;19992;-75
2022/11/09 13:45:59;;;;;;;44.42;20.60;;;;;;;;;;12951523;22;20041;-75
2022/11/09 13:51:00;;;;;;;37.80;19.10;;;;;;;;;;12948466;22;20007;-74
2022/11/09 13:56:16;;;;;;;43.50;18.75;;;;;;;;;;12949327;22;20325;-76
2022/11/09 14:01:24;;;;;;;44.60;20.00;;;;;;;;;;12948948;22;20050;-80
2022/11/09 14:06:24;;;;;;;43.23;19.60;;;;;;;;;;12949071;22;19995;-73
2022/11/09 14:11:43;;;;;;;34.90;18.52;;;;;;;;;;12949423;22;20414;-76
2022/11/09 14:17:13;;;;;;;41.83;19.60;;;;;;;;;;12948623;22;19998;-75
2022/11/09 14:22:15;;;;;;;51.55;21.77;;;;;;;;;;12816342;22;19992;-78
2022/11/09 14:27:17;;;;;;;43.88;19.70;;;;;;;;;;12996505;22;20350;-75
2022/11/09 14:32:21;;;;;;;40.67;21.40;;;;;;;;;;12949222;22;20087;-74
2022/11/09 14:37:22;;;;;;;56.47;25.23;;;;;;;;;;12947615;22;20335;-76
2022/11/09 14:42:22;;;;;;;48.30;22.38;;;;;;;;;;12947690;22;19992;-74
2022/11/09 14:47:27;;;;;;;54.65;24.83;;;;;;;;;;12996936;22;20034;-73
2022/11/09 14:52:28;;;;;;;47.72;21.92;;;;;;;;;;12996196;22;19999;-74
2022/11/09 14:57:29;;;;;;;53.67;23.85;;;;;;;;;;12947451;22;20015;-74
2022/11/09 15:02:29;;;;;;;56.97;24.23;;;;;;;;;;12947665;22;20011;-72
2022/11/09 15:07:32;;;;;;;56.60;26.27;;;;;;;;;;12995240;22;20049;-75
2022/11/09 15:12:33;;;;;;;62.80;28.02;;;;;;;;;;12947136;22;20249;-74
2022/11/09 15:17:35;;;;;;;60.75;28.42;;;;;;;;;;12947534;22;20360;-74
2022/11/09 15:22:41;;;;;;;53.30;26.30;;;;;;;;;;12947870;22;19992;-75
2022/11/09 15:27:41;;;;;;;56.20;26.58;;;;;;;;;;12946816;22;20002;-76
2022/11/09 15:32:42;;;;;;;65.00;25.92;;;;;;;;;;12922497;22;20038;-78
2022/11/09 15:37:42;;;;;;;63.15;27.00;;;;;;;;;;12948142;22;20026;-75
2022/11/09 15:42:42;;;;;;;67.07;27.30;;;;;;;;;;12948047;22;20036;-79
2022/11/09 15:47:53;;;;;;;52.80;25.15;;;;;;;;;;12947545;22;19991;-74
2022/11/09 15:52:53;;;;;;;63.17;25.80;;;;;;;;;;12947623;22;20400;-74
2022/11/09 15:57:53;;;;;;;54.53;26.30;;;;;;;;;;12947281;22;20092;-74
2022/11/09 16:02:54;;;;;;;59.10;26.23;;;;;;;;;;12951402;22;20016;-73
2022/11/09 16:07:54;;;;;;;57.25;26.83;;;;;;;;;;12959258;22;19995;-75
2022/11/09 16:12:55;;;;;;;63.05;29.50;;;;;;;;;;12955252;22;20022;-74
2022/11/09 16:17:56;;;;;;;61.58;28.25;;;;;;;;;;13004774;22;19988;-75
2022/11/09 16:22:56;;;;;;;59.47;26.13;;;;;;;;;;12952023;22;20014;-77
2022/11/09 16:27:57;;;;;;;64.30;25.83;;;;;;;;;;12999227;22;20039;-75
2022/11/09 16:32:57;;;;;;;56.33;27.48;;;;;;;;;;12998907;22;20006;-75
2022/11/09 16:38:01;;;;;;;60.28;28.08;;;;;;;;;;12949874;22;20347;-74
2022/11/09 16:43:01;;;;;;;59.53;28.83;;;;;;;;;;12950102;22;19996;-78
2022/11/09 16:48:03;;;;;;;55.73;28.30;;;;;;;;;;12998461;22;20075;-74
2022/11/09 16:53:03;;;;;;;59.33;27.40;;;;;;;;;;12950016;22;20390;-75
2022/11/09 16:58:04;;;;;;;59.50;28.80;;;;;;;;;;12988898;22;20012;-74
2022/11/09 17:03:04;;;;;;;55.88;26.50;;;;;;;;;;12950326;22;20398;-79
2022/11/09 17:08:05;;;;;;;64.40;27.57;;;;;;;;;;12949602;22;20000;-75
2022/11/09 17:13:06;;;;;;;50.80;26.52;;;;;;;;;;12998601;22;20415;-74
2022/11/09 17:18:08;;;;;;;50.33;23.98;;;;;;;;;;12945474;22;20442;-73
2022/11/09 17:23:12;;;;;;;53.75;25.15;;;;;;;;;;12946117;22;20003;-73
2022/11/09 17:28:15;;;;;;;48.13;25.35;;;;;;;;;;12993876;22;20030;-73
2022/11/09 17:33:18;;;;;;;55.75;25.45;;;;;;;;;;12945838;22;19999;-76
2022/11/09 17:38:22;;;;;;;45.42;23.90;;;;;;;;;;12943881;22;19999;-73
2022/11/09 17:43:22;;;;;;;49.75;24.10;;;;;;;;;;12917894;22;20083;-73
2022/11/09 17:48:23;;;;;;;49.83;24.73;;;;;;;;;;12945932;22;20019;-74
2022/11/09 17:53:24;;;;;;;44.63;22.95;;;;;;;;;;12993768;22;20065;-71
2022/11/09 17:58:24;;;;;;;57.95;24.58;;;;;;;;;;12985528;22;20023;-73
2022/11/09 18:03:25;;;;;;;45.70;24.05;;;;;;;;;;12941262;22;20079;-72
2022/11/09 18:08:25;;;;;;;50.60;25.15;;;;;;;;;;12943663;22;20447;-76
2022/11/09 18:13:26;;;;;;;48.05;24.23;;;;;;;;;;12943352;22;20008;-73
2022/11/09 18:18:27;;;;;;;51.70;24.88;;;;;;;;;;12935978;22;20014;-75
2022/11/09 18:23:28;;;;;;;51.10;23.90;;;;;;;;;;12938905;22;19999;-71
2022/11/09 18:28:28;;;;;;;46.70;25.45;;;;;;;;;;12940298;22;20003;-77
2022/11/09 18:33:30;;;;;;;51.20;25.80;;;;;;;;;;12982282;22;20507;-74
2022/11/09 18:38:30;;;;;;;56.92;26.10;;;;;;;;;;12943435;22;19988;-76
2022/11/09 18:43:32;;;;;;;49.22;24.90;;;;;;;;;;12971287;22;20443;-74
2022/11/09 18:48:32;;;;;;;56.28;27.33;;;;;;;;;;12945074;22;20079;-74
2022/11/09 18:53:34;;;;;;;50.13;25.47;;;;;;;;;;12945576;22;20469;-75
2022/11/09 18:58:35;;;;;;;50.90;26.83;;;;;;;;;;12954863;22;20435;-72
2022/11/09 19:03:35;;;;;;;52.60;28.02;;;;;;;;;;12951056;22;19996;-75
2022/11/09 19:13:55;;;;;;;68.82;29.67;;;;;;;;;;13008915;22;19995;-74
2022/11/09 19:18:55;;;;;;;56.65;26.92;;;;;;;;;;12959620;22;20470;-75
2022/11/09 19:23:55;;;;;;;52.72;26.63;;;;;;;;;;12926154;22;20398;-73
2022/11/09 19:28:56;;;;;;;57.33;27.55;;;;;;;;;;12942974;22;20459;-73
2022/11/09 19:33:56;;;;;;;48.97;25.60;;;;;;;;;;12942951;22;19996;-74
2022/11/09 19:38:57;;;;;;;51.88;25.92;;;;;;;;;;12944538;22;19995;-74
2022/11/09 19:43:57;;;;;;;54.53;26.63;;;;;;;;;;12990703;22;19996;-77
2022/11/09 19:48:58;;;;;;;57.72;25.63;;;;;;;;;;12945603;22;19996;-74
2022/11/09 19:53:59;;;;;;;58.35;27.60;;;;;;;;;;12922227;22;20011;-76
2022/11/09 19:59:00;;;;;;;51.65;26.20;;;;;;;;;;12948680;22;20002;-74
2022/11/09 20:04:00;;;;;;;55.35;26.63;;;;;;;;;;12997693;22;20497;-77
2022/11/09 20:09:01;;;;;;;49.20;25.93;;;;;;;;;;12997671;22;19988;-72
2022/11/09 20:14:05;;;;;;;54.38;25.40;;;;;;;;;;12947743;22;20004;-77
2022/11/09 20:19:08;;;;;;;60.13;27.70;;;;;;;;;;12950514;22;20376;-75
2022/11/09 20:24:11;;;;;;;54.90;26.88;;;;;;;;;;12949710;22;20016;-76
2022/11/09 20:29:11;;;;;;;60.85;27.88;;;;;;;;;;12948975;22;20111;-76
2022/11/09 20:34:11;;;;;;;57.33;27.70;;;;;;;;;;12948015;22;20067;-74
2022/11/09 20:39:13;;;;;;;62.60;26.85;;;;;;;;;;12947473;22;20474;-79
2022/11/09 20:44:14;;;;;;;60.80;27.17;;;;;;;;;;12947829;22;20006;-74
2022/11/09 20:49:14;;;;;;;54.65;28.02;;;;;;;;;;12947115;22;19992;-78
2022/11/09 20:54:14;;;;;;;54.80;25.67;;;;;;;;;;12945551;22;20440;-80
2022/11/09 20:59:16;;;;;;;54.35;28.77;;;;;;;;;;12993362;22;19987;-83
2022/11/09 21:04:16;;;;;;;63.72;26.30;;;;;;;;;;12979309;22;20040;-78
2022/11/09 21:09:17;;;;;;;66.93;29.40;;;;;;;;;;12947899;22;19992;-80
2022/11/09 21:14:18;;;;;;;61.25;29.35;;;;;;;;;;12972676;22;20022;-79
2022/11/09 21:19:20;;;;;;;66.30;30.35;;;;;;;;;;12946312;22;20099;-78
2022/11/09 21:29:49;;;;;;;59.42;29.90;;;;;;;;;;13010025;22;20355;-78
2022/11/09 21:34:49;;;;;;;64.93;31.80;;;;;;;;;;13003142;22;19999;-81
2022/11/09 21:39:50;;;;;;;60.78;29.92;;;;;;;;;;12949299;22;19995;-77
2022/11/09 21:44:50;;;;;;;67.88;29.90;;;;;;;;;;12992577;22;19992;-78
2022/11/09 21:49:51;;;;;;;66.25;30.25;;;;;;;;;;12949323;22;19991;-78
2022/11/09 21:54:51;;;;;;;66.88;31.70;;;;;;;;;;12995284;22;20073;-79
2022/11/09 21:59:52;;;;;;;76.15;30.92;;;;;;;;;;12989973;22;20063;-79
2022/11/09 22:04:52;;;;;;;63.65;29.38;;;;;;;;;;12946324;22;19996;-78
2022/11/09 22:09:52;;;;;;;65.35;27.77;;;;;;;;;;12995992;22;19995;-75
2022/11/09 22:25:30;;;;;;;65.63;32.03;;;;;;;;;;12951199;22;20008;-75
2022/11/09 22:30:31;;;;;;;65.15;30.85;;;;;;;;;;12992694;22;20003;-74
2022/11/09 22:35:31;;;;;;;74.10;33.97;;;;;;;;;;12950157;22;20041;-83
2022/11/09 22:40:31;;;;;;;68.63;32.80;;;;;;;;;;12950561;22;20370;-76
2022/11/09 22:45:32;;;;;;;72.97;34.42;;;;;;;;;;12949222;22;20580;-74
2022/11/09 22:50:32;;;;;;;64.22;31.35;;;;;;;;;;12995371;22;20002;-73
2022/11/09 22:55:32;;;;;;;69.93;32.33;;;;;;;;;;12996519;22;19991;-73
2022/11/09 23:00:33;;;;;;;76.53;34.85;;;;;;;;;;12968775;22;20406;-75
2022/11/09 23:05:34;;;;;;;70.15;31.83;;;;;;;;;;12949039;22;19991;-76
2022/11/09 23:10:35;;;;;;;66.55;31.48;;;;;;;;;;12950365;22;20003;-78
2022/11/09 23:15:35;;;;;;;76.78;33.63;;;;;;;;;;12949765;22;20316;-73
2022/11/09 23:20:35;;;;;;;68.47;34.00;;;;;;;;;;12950358;22;20049;-77
2022/11/09 23:25:55;;;;;;;73.93;34.00;;;;;;;;;;12932326;22;20028;-75
2022/11/09 23:30:59;;;;;;;71.95;32.15;;;;;;;;;;12950335;22;20000;-78
2022/11/09 23:36:00;;;;;;;70.63;34.85;;;;;;;;;;12949854;22;20042;-80
2022/11/09 23:41:01;;;;;;;70.05;32.53;;;;;;;;;;13001587;22;20333;-80
2022/11/09 23:46:06;;;;;;;74.38;34.80;;;;;;;;;;12950357;22;20022;-73
2022/11/09 23:51:07;;;;;;;70.82;30.80;;;;;;;;;;12925836;22;19995;-74
2022/11/09 23:56:08;;;;;;;72.22;31.45;;;;;;;;;;12951107;22;19984;-74
